sensor_id;sensor_type;location;lat;lon;timestamp;temperature;humidity
61591;DHT22;71994;52.410;-1.966;2024-01-11T00:05:28;16.00;45.90
61591;DHT22;71994;52.410;-1.966;2024-01-11T00:08:51;16.00;45.80
61591;DHT22;71994;52.410;-1.966;2024-01-11T00:12:14;16.00;45.90
61591;DHT22;71994;52.410;-1.966;2024-01-11T00:15:36;15.90;45.90
61591;DHT22;71994;52.410;-1.966;2024-01-11T00:18:59;15.90;45.90
61591;DHT22;71994;52.410;-1.966;2024-01-11T00:22:25;15.90;45.90
61591;DHT22;71994;52.410;-1.966;2024-01-11T00:25:47;15.80;45.90
61591;DHT22;71994;52.410;-1.966;2024-01-11T00:29:10;15.80;45.80
61591;DHT22;71994;52.410;-1.966;2024-01-11T00:32:33;15.80;45.90
61591;DHT22;71994;52.410;-1.966;2024-01-11T00:35:55;15.80;45.90
61591;DHT22;71994;52.410;-1.966;2024-01-11T00:39:21;15.70;45.80
61591;DHT22;71994;52.410;-1.966;2024-01-11T00:42:43;15.70;45.80
61591;DHT22;71994;52.410;-1.966;2024-01-11T00:46:09;15.70;45.80
61591;DHT22;71994;52.410;-1.966;2024-01-11T00:49:31;15.70;45.80
61591;DHT22;71994;52.410;-1.966;2024-01-11T00:52:56;15.60;45.80
61591;DHT22;71994;52.410;-1.966;2024-01-11T00:56:23;15.60;45.80
61591;DHT22;71994;52.410;-1.966;2024-01-11T00:59:45;15.60;45.80
61591;DHT22;71994;52.410;-1.966;2024-01-11T01:03:08;15.60;45.80
61591;DHT22;71994;52.410;-1.966;2024-01-11T01:06:30;15.60;45.90
61591;DHT22;71994;52.410;-1.966;2024-01-11T01:09:53;15.50;45.90
61591;DHT22;71994;52.410;-1.966;2024-01-11T01:13:18;15.50;45.90
61591;DHT22;71994;52.410;-1.966;2024-01-11T01:16:42;15.50;45.90
61591;DHT22;71994;52.410;-1.966;2024-01-11T01:20:06;15.50;45.80
61591;DHT22;71994;52.410;-1.966;2024-01-11T01:23:28;15.50;45.90
61591;DHT22;71994;52.410;-1.966;2024-01-11T01:26:51;15.60;45.80
61591;DHT22;71994;52.410;-1.966;2024-01-11T01:30:16;15.70;45.80
61591;DHT22;71994;52.410;-1.966;2024-01-11T01:33:42;15.90;45.60
61591;DHT22;71994;52.410;-1.966;2024-01-11T01:37:05;16.10;45.40
61591;DHT22;71994;52.410;-1.966;2024-01-11T01:40:29;16.30;45.10
61591;DHT22;71994;52.410;-1.966;2024-01-11T01:43:52;16.60;44.90
61591;DHT22;71994;52.410;-1.966;2024-01-11T01:47:18;16.80;44.60
61591;DHT22;71994;52.410;-1.966;2024-01-11T01:50:40;16.90;44.30
61591;DHT22;71994;52.410;-1.966;2024-01-11T01:54:09;17.00;44.10
61591;DHT22;71994;52.410;-1.966;2024-01-11T01:57:33;17.00;44.00
61591;DHT22;71994;52.410;-1.966;2024-01-11T02:00:56;17.10;43.90
61591;DHT22;71994;52.410;-1.966;2024-01-11T02:04:22;17.00;43.80
61591;DHT22;71994;52.410;-1.966;2024-01-11T02:07:45;17.00;43.80
61591;DHT22;71994;52.410;-1.966;2024-01-11T02:11:09;16.90;43.80
61591;DHT22;71994;52.410;-1.966;2024-01-11T02:14:33;16.90;43.80
61591;DHT22;71994;52.410;-1.966;2024-01-11T02:17:55;16.80;43.90
61591;DHT22;71994;52.410;-1.966;2024-01-11T02:21:21;16.80;44.00
61591;DHT22;71994;52.410;-1.966;2024-01-11T02:24:48;16.70;44.00
61591;DHT22;71994;52.410;-1.966;2024-01-11T02:28:12;16.60;44.10
61591;DHT22;71994;52.410;-1.966;2024-01-11T02:31:34;16.60;44.10
61591;DHT22;71994;52.410;-1.966;2024-01-11T02:35:00;16.60;44.20
61591;DHT22;71994;52.410;-1.966;2024-01-11T02:38:23;16.50;44.20
61591;DHT22;71994;52.410;-1.966;2024-01-11T02:41:50;16.50;44.30
61591;DHT22;71994;52.410;-1.966;2024-01-11T02:45:15;16.40;44.30
61591;DHT22;71994;52.410;-1.966;2024-01-11T02:48:38;16.30;44.50
61591;DHT22;71994;52.410;-1.966;2024-01-11T02:52:00;16.30;44.40
61591;DHT22;71994;52.410;-1.966;2024-01-11T02:55:23;16.20;44.50
61591;DHT22;71994;52.410;-1.966;2024-01-11T02:58:48;16.20;44.90
61591;DHT22;71994;52.410;-1.966;2024-01-11T03:02:11;16.20;44.60
61591;DHT22;71994;52.410;-1.966;2024-01-11T03:05:34;16.10;44.60
61591;DHT22;71994;52.410;-1.966;2024-01-11T03:08:56;16.10;44.60
61591;DHT22;71994;52.410;-1.966;2024-01-11T03:12:19;16.10;44.70
61591;DHT22;71994;52.410;-1.966;2024-01-11T03:15:44;16.00;44.70
61591;DHT22;71994;52.410;-1.966;2024-01-11T03:19:07;16.00;44.80
61591;DHT22;71994;52.410;-1.966;2024-01-11T03:22:29;15.90;44.70
61591;DHT22;71994;52.410;-1.966;2024-01-11T03:25:52;15.90;44.90
61591;DHT22;71994;52.410;-1.966;2024-01-11T03:29:14;15.80;44.90
61591;DHT22;71994;52.410;-1.966;2024-01-11T03:32:40;15.70;44.90
61591;DHT22;71994;52.410;-1.966;2024-01-11T03:36:07;15.70;45.00
61591;DHT22;71994;52.410;-1.966;2024-01-11T03:39:29;15.70;45.00
61591;DHT22;71994;52.410;-1.966;2024-01-11T03:42:52;15.70;44.90
61591;DHT22;71994;52.410;-1.966;2024-01-11T03:46:15;15.60;45.10
61591;DHT22;71994;52.410;-1.966;2024-01-11T03:49:41;15.60;45.10
61591;DHT22;71994;52.410;-1.966;2024-01-11T03:53:03;15.60;45.10
61591;DHT22;71994;52.410;-1.966;2024-01-11T03:56:27;15.60;45.10
61591;DHT22;71994;52.410;-1.966;2024-01-11T03:59:49;15.60;45.20
61591;DHT22;71994;52.410;-1.966;2024-01-11T04:03:12;15.70;45.10
61591;DHT22;71994;52.410;-1.966;2024-01-11T04:06:37;15.80;45.10
61591;DHT22;71994;52.410;-1.966;2024-01-11T04:10:00;16.00;45.00
61591;DHT22;71994;52.410;-1.966;2024-01-11T04:13:23;16.20;44.90
61591;DHT22;71994;52.410;-1.966;2024-01-11T04:16:46;16.40;44.70
61591;DHT22;71994;52.410;-1.966;2024-01-11T04:20:09;16.60;44.40
61591;DHT22;71994;52.410;-1.966;2024-01-11T04:23:34;16.80;44.10
61591;DHT22;71994;52.410;-1.966;2024-01-11T04:26:57;17.00;43.80
61591;DHT22;71994;52.410;-1.966;2024-01-11T04:30:19;17.10;43.60
61591;DHT22;71994;52.410;-1.966;2024-01-11T04:33:42;17.20;43.30
61591;DHT22;71994;52.410;-1.966;2024-01-11T04:37:06;17.20;43.20
61591;DHT22;71994;52.410;-1.966;2024-01-11T04:40:34;17.20;43.00
61591;DHT22;71994;52.410;-1.966;2024-01-11T04:43:57;17.20;43.10
61591;DHT22;71994;52.410;-1.966;2024-01-11T04:47:20;17.10;43.20
61591;DHT22;71994;52.410;-1.966;2024-01-11T04:50:42;17.10;43.20
61591;DHT22;71994;52.410;-1.966;2024-01-11T04:54:05;17.00;43.30
61591;DHT22;71994;52.410;-1.966;2024-01-11T04:57:30;16.90;43.50
61591;DHT22;71994;52.410;-1.966;2024-01-11T05:00:56;16.80;43.50
61591;DHT22;71994;52.410;-1.966;2024-01-11T05:04:19;16.80;43.50
61591;DHT22;71994;52.410;-1.966;2024-01-11T05:07:42;16.70;43.60
61591;DHT22;71994;52.410;-1.966;2024-01-11T05:11:05;16.60;43.80
61591;DHT22;71994;52.410;-1.966;2024-01-11T05:14:30;16.60;43.80
61591;DHT22;71994;52.410;-1.966;2024-01-11T05:17:54;16.60;43.90
61591;DHT22;71994;52.410;-1.966;2024-01-11T05:21:17;16.50;43.80
61591;DHT22;71994;52.410;-1.966;2024-01-11T05:24:40;16.40;44.00
61591;DHT22;71994;52.410;-1.966;2024-01-11T05:28:03;16.30;44.00
61591;DHT22;71994;52.410;-1.966;2024-01-11T05:31:29;16.30;44.00
61591;DHT22;71994;52.410;-1.966;2024-01-11T05:34:51;16.30;44.00
61591;DHT22;71994;52.410;-1.966;2024-01-11T05:38:14;16.20;44.00
61591;DHT22;71994;52.410;-1.966;2024-01-11T05:41:36;16.10;44.10
61591;DHT22;71994;52.410;-1.966;2024-01-11T05:44:59;16.10;44.10
61591;DHT22;71994;52.410;-1.966;2024-01-11T05:48:24;16.10;44.20
61591;DHT22;71994;52.410;-1.966;2024-01-11T05:51:47;16.00;44.10
61591;DHT22;71994;52.410;-1.966;2024-01-11T05:55:09;16.00;44.20
61591;DHT22;71994;52.410;-1.966;2024-01-11T05:58:32;15.90;44.20
61591;DHT22;71994;52.410;-1.966;2024-01-11T06:01:55;15.90;44.30
61591;DHT22;71994;52.410;-1.966;2024-01-11T06:05:24;15.80;44.40
61591;DHT22;71994;52.410;-1.966;2024-01-11T06:08:47;15.80;44.40
61591;DHT22;71994;52.410;-1.966;2024-01-11T06:12:11;15.70;44.40
61591;DHT22;71994;52.410;-1.966;2024-01-11T06:15:33;15.70;44.40
61591;DHT22;71994;52.410;-1.966;2024-01-11T06:18:56;15.60;44.50
61591;DHT22;71994;52.410;-1.966;2024-01-11T06:22:21;15.60;44.50
61591;DHT22;71994;52.410;-1.966;2024-01-11T06:25:44;15.60;44.50
61591;DHT22;71994;52.410;-1.966;2024-01-11T06:29:06;15.50;44.60
61591;DHT22;71994;52.410;-1.966;2024-01-11T06:32:29;15.60;44.60
61591;DHT22;71994;52.410;-1.966;2024-01-11T06:35:51;15.60;44.60
61591;DHT22;71994;52.410;-1.966;2024-01-11T06:39:16;15.80;44.50
61591;DHT22;71994;52.410;-1.966;2024-01-11T06:42:39;16.00;44.50
61591;DHT22;71994;52.410;-1.966;2024-01-11T06:46:05;16.10;44.50
61591;DHT22;71994;52.410;-1.966;2024-01-11T06:49:29;16.30;44.20
61591;DHT22;71994;52.410;-1.966;2024-01-11T06:52:51;16.60;44.00
61591;DHT22;71994;52.410;-1.966;2024-01-11T06:56:18;16.80;43.70
61591;DHT22;71994;52.410;-1.966;2024-01-11T06:59:41;17.00;43.30
61591;DHT22;71994;52.410;-1.966;2024-01-11T07:03:05;17.10;43.10
61591;DHT22;71994;52.410;-1.966;2024-01-11T07:06:28;17.20;42.80
61591;DHT22;71994;52.410;-1.966;2024-01-11T07:09:50;17.30;42.70
61591;DHT22;71994;52.410;-1.966;2024-01-11T07:13:17;17.40;42.70
61591;DHT22;71994;52.410;-1.966;2024-01-11T07:16:40;17.40;42.60
61591;DHT22;71994;52.410;-1.966;2024-01-11T07:20:03;17.50;42.50
61591;DHT22;71994;52.410;-1.966;2024-01-11T07:23:28;17.60;42.40
61591;DHT22;71994;52.410;-1.966;2024-01-11T07:26:51;17.80;42.20
61591;DHT22;71994;52.410;-1.966;2024-01-11T07:30:17;17.90;42.10
61591;DHT22;71994;52.410;-1.966;2024-01-11T07:33:43;18.00;41.70
61591;DHT22;71994;52.410;-1.966;2024-01-11T07:37:07;18.10;41.70
61591;DHT22;71994;52.410;-1.966;2024-01-11T07:40:30;18.20;41.70
61591;DHT22;71994;52.410;-1.966;2024-01-11T07:43:52;18.20;41.70
61591;DHT22;71994;52.410;-1.966;2024-01-11T07:47:20;18.20;41.80
61591;DHT22;71994;52.410;-1.966;2024-01-11T07:50:43;18.30;41.70
61591;DHT22;71994;52.410;-1.966;2024-01-11T07:54:07;18.30;41.80
61591;DHT22;71994;52.410;-1.966;2024-01-11T07:57:29;18.50;41.90
61591;DHT22;71994;52.410;-1.966;2024-01-11T08:00:52;18.60;41.90
61591;DHT22;71994;52.410;-1.966;2024-01-11T08:04:17;18.60;41.90
61591;DHT22;71994;52.410;-1.966;2024-01-11T08:07:40;18.60;41.60
61591;DHT22;71994;52.410;-1.966;2024-01-11T08:11:04;18.60;41.60
61591;DHT22;71994;52.410;-1.966;2024-01-11T08:14:26;18.60;41.70
61591;DHT22;71994;52.410;-1.966;2024-01-11T08:17:49;18.60;42.00
61591;DHT22;71994;52.410;-1.966;2024-01-11T08:21:14;18.70;42.10
61591;DHT22;71994;52.410;-1.966;2024-01-11T08:24:37;18.70;42.40
61591;DHT22;71994;52.410;-1.966;2024-01-11T08:28:00;18.80;42.20
61591;DHT22;71994;52.410;-1.966;2024-01-11T08:31:22;18.90;42.10
61591;DHT22;71994;52.410;-1.966;2024-01-11T08:34:45;18.90;42.20
61591;DHT22;71994;52.410;-1.966;2024-01-11T08:38:10;19.00;42.10
61591;DHT22;71994;52.410;-1.966;2024-01-11T08:41:33;19.10;42.10
61591;DHT22;71994;52.410;-1.966;2024-01-11T08:44:57;19.00;42.10
61591;DHT22;71994;52.410;-1.966;2024-01-11T08:48:26;18.90;42.40
61591;DHT22;71994;52.410;-1.966;2024-01-11T08:51:49;18.80;42.60
61591;DHT22;71994;52.410;-1.966;2024-01-11T08:55:15;18.70;42.50
61591;DHT22;71994;52.410;-1.966;2024-01-11T08:58:37;18.60;42.50
61591;DHT22;71994;52.410;-1.966;2024-01-11T09:02:01;18.60;42.70
61591;DHT22;71994;52.410;-1.966;2024-01-11T09:05:24;18.40;42.80
61591;DHT22;71994;52.410;-1.966;2024-01-11T09:08:47;18.30;43.00
61591;DHT22;71994;52.410;-1.966;2024-01-11T09:12:12;18.10;43.20
61591;DHT22;71994;52.410;-1.966;2024-01-11T09:15:35;18.10;43.00
61591;DHT22;71994;52.410;-1.966;2024-01-11T09:18:58;17.90;43.20
61591;DHT22;71994;52.410;-1.966;2024-01-11T09:22:20;17.90;43.10
61591;DHT22;71994;52.410;-1.966;2024-01-11T09:25:43;17.80;42.90
61591;DHT22;71994;52.410;-1.966;2024-01-11T09:29:08;17.60;42.90
61591;DHT22;71994;52.410;-1.966;2024-01-11T09:32:31;17.60;43.00
61591;DHT22;71994;52.410;-1.966;2024-01-11T09:35:54;17.40;42.60
61591;DHT22;71994;52.410;-1.966;2024-01-11T09:39:17;17.30;41.40
61591;DHT22;71994;52.410;-1.966;2024-01-11T09:42:39;17.10;42.00
61591;DHT22;71994;52.410;-1.966;2024-01-11T09:46:06;17.10;42.50
61591;DHT22;71994;52.410;-1.966;2024-01-11T09:49:33;17.00;42.70
61591;DHT22;71994;52.410;-1.966;2024-01-11T09:52:58;16.90;42.70
61591;DHT22;71994;52.410;-1.966;2024-01-11T09:56:26;16.80;43.20
61591;DHT22;71994;52.410;-1.966;2024-01-11T09:59:54;16.80;43.30
61591;DHT22;71994;52.410;-1.966;2024-01-11T10:03:23;16.80;43.40
61591;DHT22;71994;52.410;-1.966;2024-01-11T10:06:46;16.70;43.50
61591;DHT22;71994;52.410;-1.966;2024-01-11T10:10:10;16.70;43.70
61591;DHT22;71994;52.410;-1.966;2024-01-11T10:13:36;16.70;43.60
61591;DHT22;71994;52.410;-1.966;2024-01-11T10:16:58;16.70;43.70
61591;DHT22;71994;52.410;-1.966;2024-01-11T10:20:23;16.70;43.90
61591;DHT22;71994;52.410;-1.966;2024-01-11T10:23:49;16.80;44.00
61591;DHT22;71994;52.410;-1.966;2024-01-11T10:27:12;16.90;43.80
61591;DHT22;71994;52.410;-1.966;2024-01-11T10:30:34;17.10;43.80
61591;DHT22;71994;52.410;-1.966;2024-01-11T10:33:57;17.30;43.60
61591;DHT22;71994;52.410;-1.966;2024-01-11T10:37:25;17.50;43.50
61591;DHT22;71994;52.410;-1.966;2024-01-11T10:40:48;17.70;43.20
61591;DHT22;71994;52.410;-1.966;2024-01-11T10:44:18;17.80;42.90
61591;DHT22;71994;52.410;-1.966;2024-01-11T10:47:44;18.00;42.80
61591;DHT22;71994;52.410;-1.966;2024-01-11T10:51:13;18.10;42.60
61591;DHT22;71994;52.410;-1.966;2024-01-11T10:54:40;18.10;42.50
61591;DHT22;71994;52.410;-1.966;2024-01-11T10:58:03;18.20;42.50
61591;DHT22;71994;52.410;-1.966;2024-01-11T11:01:28;18.10;42.40
61591;DHT22;71994;52.410;-1.966;2024-01-11T11:04:53;18.10;42.40
61591;DHT22;71994;52.410;-1.966;2024-01-11T11:08:17;18.10;42.50
61591;DHT22;71994;52.410;-1.966;2024-01-11T11:11:45;18.00;42.50
61591;DHT22;71994;52.410;-1.966;2024-01-11T11:15:09;18.00;42.50
61591;DHT22;71994;52.410;-1.966;2024-01-11T11:18:34;17.90;42.60
61591;DHT22;71994;52.410;-1.966;2024-01-11T11:21:57;17.80;42.70
61591;DHT22;71994;52.410;-1.966;2024-01-11T11:25:24;17.70;42.90
61591;DHT22;71994;52.410;-1.966;2024-01-11T11:28:49;17.60;42.90
61591;DHT22;71994;52.410;-1.966;2024-01-11T11:32:14;17.60;43.10
61591;DHT22;71994;52.410;-1.966;2024-01-11T11:35:38;17.40;43.30
61591;DHT22;71994;52.410;-1.966;2024-01-11T11:39:09;17.30;43.40
61591;DHT22;71994;52.410;-1.966;2024-01-11T11:42:32;17.30;43.50
61591;DHT22;71994;52.410;-1.966;2024-01-11T11:46:00;17.20;43.60
61591;DHT22;71994;52.410;-1.966;2024-01-11T11:53:30;17.10;43.60
61591;DHT22;71994;52.410;-1.966;2024-01-11T11:56:57;17.10;43.70
61591;DHT22;71994;52.410;-1.966;2024-01-11T12:00:21;17.10;43.80
61591;DHT22;71994;52.410;-1.966;2024-01-11T12:03:46;17.10;43.80
61591;DHT22;71994;52.410;-1.966;2024-01-11T12:07:10;17.00;43.90
61591;DHT22;71994;52.410;-1.966;2024-01-11T12:10:34;16.90;44.00
61591;DHT22;71994;52.410;-1.966;2024-01-11T12:13:57;16.90;44.20
61591;DHT22;71994;52.410;-1.966;2024-01-11T12:17:20;16.90;44.20
61591;DHT22;71994;52.410;-1.966;2024-01-11T12:20:45;16.90;44.50
61591;DHT22;71994;52.410;-1.966;2024-01-11T12:24:09;17.00;44.70
61591;DHT22;71994;52.410;-1.966;2024-01-11T12:27:32;17.10;44.80
61591;DHT22;71994;52.410;-1.966;2024-01-11T12:30:55;17.30;45.20
61591;DHT22;71994;52.410;-1.966;2024-01-11T12:34:24;17.60;45.60
61591;DHT22;71994;52.410;-1.966;2024-01-11T12:38:04;17.80;45.60
61591;DHT22;71994;52.410;-1.966;2024-01-11T12:41:35;18.00;44.80
61591;DHT22;71994;52.410;-1.966;2024-01-11T12:45:01;18.10;44.60
61591;DHT22;71994;52.410;-1.966;2024-01-11T12:48:23;18.10;44.30
61591;DHT22;71994;52.410;-1.966;2024-01-11T12:51:46;18.10;44.20
61591;DHT22;71994;52.410;-1.966;2024-01-11T12:55:18;18.10;44.10
61591;DHT22;71994;52.410;-1.966;2024-01-11T12:58:43;18.10;44.00
61591;DHT22;71994;52.410;-1.966;2024-01-11T13:02:10;18.10;44.20
61591;DHT22;71994;52.410;-1.966;2024-01-11T13:05:39;18.10;43.90
61591;DHT22;71994;52.410;-1.966;2024-01-11T13:09:02;18.00;43.90
61591;DHT22;71994;52.410;-1.966;2024-01-11T13:12:30;17.90;44.10
61591;DHT22;71994;52.410;-1.966;2024-01-11T13:15:55;17.70;44.30
61591;DHT22;71994;52.410;-1.966;2024-01-11T13:19:25;17.60;44.40
61591;DHT22;71994;52.410;-1.966;2024-01-11T13:23:12;17.60;44.20
61591;DHT22;71994;52.410;-1.966;2024-01-11T13:26:40;17.50;44.40
61591;DHT22;71994;52.410;-1.966;2024-01-11T13:30:06;17.40;44.40
61591;DHT22;71994;52.410;-1.966;2024-01-11T13:33:29;17.40;44.60
61591;DHT22;71994;52.410;-1.966;2024-01-11T13:36:52;17.30;44.60
61591;DHT22;71994;52.410;-1.966;2024-01-11T13:40:15;17.20;44.70
61591;DHT22;71994;52.410;-1.966;2024-01-11T13:43:37;17.20;44.80
61591;DHT22;71994;52.410;-1.966;2024-01-11T13:47:03;17.10;44.80
61591;DHT22;71994;52.410;-1.966;2024-01-11T13:50:25;17.10;44.90
61591;DHT22;71994;52.410;-1.966;2024-01-11T13:53:50;17.10;44.90
61591;DHT22;71994;52.410;-1.966;2024-01-11T13:57:13;17.10;45.00
61591;DHT22;71994;52.410;-1.966;2024-01-11T14:00:35;17.00;45.00
61591;DHT22;71994;52.410;-1.966;2024-01-11T14:04:02;17.00;45.00
61591;DHT22;71994;52.410;-1.966;2024-01-11T14:07:28;17.00;44.90
61591;DHT22;71994;52.410;-1.966;2024-01-11T14:10:51;17.00;45.00
61591;DHT22;71994;52.410;-1.966;2024-01-11T14:14:14;17.00;45.00
61591;DHT22;71994;52.410;-1.966;2024-01-11T14:17:39;16.90;45.10
61591;DHT22;71994;52.410;-1.966;2024-01-11T14:21:04;16.90;45.00
61591;DHT22;71994;52.410;-1.966;2024-01-11T14:24:30;16.90;45.00
61591;DHT22;71994;52.410;-1.966;2024-01-11T14:27:53;16.90;45.30
61591;DHT22;71994;52.410;-1.966;2024-01-11T14:31:16;16.80;45.40
61591;DHT22;71994;52.410;-1.966;2024-01-11T14:34:38;17.00;45.40
61591;DHT22;71994;52.410;-1.966;2024-01-11T14:38:03;17.10;45.20
61591;DHT22;71994;52.410;-1.966;2024-01-11T14:41:26;17.40;44.90
61591;DHT22;71994;52.410;-1.966;2024-01-11T14:44:48;17.60;44.70
61591;DHT22;71994;52.410;-1.966;2024-01-11T14:48:11;17.70;44.30
61591;DHT22;71994;52.410;-1.966;2024-01-11T14:51:34;18.00;44.20
61591;DHT22;71994;52.410;-1.966;2024-01-11T14:54:59;18.10;44.20
61591;DHT22;71994;52.410;-1.966;2024-01-11T14:58:23;18.10;44.00
61591;DHT22;71994;52.410;-1.966;2024-01-11T15:01:46;18.20;43.70
61591;DHT22;71994;52.410;-1.966;2024-01-11T15:05:08;18.20;43.80
61591;DHT22;71994;52.410;-1.966;2024-01-11T15:08:31;18.20;43.90
61591;DHT22;71994;52.410;-1.966;2024-01-11T15:11:56;18.20;43.80
61591;DHT22;71994;52.410;-1.966;2024-01-11T15:15:21;18.10;43.80
61591;DHT22;71994;52.410;-1.966;2024-01-11T15:18:43;18.00;44.00
61591;DHT22;71994;52.410;-1.966;2024-01-11T15:22:06;17.90;44.00
61591;DHT22;71994;52.410;-1.966;2024-01-11T15:25:32;17.80;44.10
61591;DHT22;71994;52.410;-1.966;2024-01-11T15:28:58;17.70;44.20
61591;DHT22;71994;52.410;-1.966;2024-01-11T15:32:21;17.70;44.20
61591;DHT22;71994;52.410;-1.966;2024-01-11T15:35:44;17.60;44.30
61591;DHT22;71994;52.410;-1.966;2024-01-11T15:39:07;17.60;44.70
61591;DHT22;71994;52.410;-1.966;2024-01-11T15:42:31;17.60;44.50
61591;DHT22;71994;52.410;-1.966;2024-01-11T15:45:56;17.60;44.60
61591;DHT22;71994;52.410;-1.966;2024-01-11T15:49:19;17.40;44.40
61591;DHT22;71994;52.410;-1.966;2024-01-11T15:52:42;17.40;44.80
61591;DHT22;71994;52.410;-1.966;2024-01-11T15:56:05;17.40;44.70
61591;DHT22;71994;52.410;-1.966;2024-01-11T15:59:28;17.20;44.70
61591;DHT22;71994;52.410;-1.966;2024-01-11T16:02:53;17.10;45.00
61591;DHT22;71994;52.410;-1.966;2024-01-11T16:06:16;17.10;45.00
61591;DHT22;71994;52.410;-1.966;2024-01-11T16:09:41;17.00;45.10
61591;DHT22;71994;52.410;-1.966;2024-01-11T16:13:04;17.00;45.10
61591;DHT22;71994;52.410;-1.966;2024-01-11T16:16:27;17.00;45.10
61591;DHT22;71994;52.410;-1.966;2024-01-11T16:19:53;16.90;45.20
61591;DHT22;71994;52.410;-1.966;2024-01-11T16:23:15;16.90;45.20
61591;DHT22;71994;52.410;-1.966;2024-01-11T16:26:38;16.80;45.40
61591;DHT22;71994;52.410;-1.966;2024-01-11T16:30:00;16.80;45.40
61591;DHT22;71994;52.410;-1.966;2024-01-11T16:33:23;16.80;45.60
61591;DHT22;71994;52.410;-1.966;2024-01-11T16:36:50;16.70;45.80
61591;DHT22;71994;52.410;-1.966;2024-01-11T16:40:13;16.60;45.90
61591;DHT22;71994;52.410;-1.966;2024-01-11T16:43:36;16.60;45.90
61591;DHT22;71994;52.410;-1.966;2024-01-11T16:46:58;16.60;46.00
61591;DHT22;71994;52.410;-1.966;2024-01-11T16:50:21;16.70;45.90
61591;DHT22;71994;52.410;-1.966;2024-01-11T16:53:46;16.90;45.90
61591;DHT22;71994;52.410;-1.966;2024-01-11T16:57:09;17.10;45.80
61591;DHT22;71994;52.410;-1.966;2024-01-11T17:00:32;17.30;45.70
61591;DHT22;71994;52.410;-1.966;2024-01-11T17:03:55;17.50;45.30
61591;DHT22;71994;52.410;-1.966;2024-01-11T17:07:17;17.70;44.90
61591;DHT22;71994;52.410;-1.966;2024-01-11T17:10:43;17.90;44.60
61591;DHT22;71994;52.410;-1.966;2024-01-11T17:14:05;18.10;44.00
61591;DHT22;71994;52.410;-1.966;2024-01-11T17:17:28;18.30;43.90
61591;DHT22;71994;52.410;-1.966;2024-01-11T17:20:50;18.50;43.40
61591;DHT22;71994;52.410;-1.966;2024-01-11T17:24:13;18.60;43.20
61591;DHT22;71994;52.410;-1.966;2024-01-11T17:27:38;18.80;43.70
61591;DHT22;71994;52.410;-1.966;2024-01-11T17:31:02;19.00;44.00
61591;DHT22;71994;52.410;-1.966;2024-01-11T17:34:25;19.10;43.80
61591;DHT22;71994;52.410;-1.966;2024-01-11T17:37:47;19.20;43.90
61591;DHT22;71994;52.410;-1.966;2024-01-11T17:41:10;19.10;43.70
61591;DHT22;71994;52.410;-1.966;2024-01-11T17:44:35;19.10;43.80
61591;DHT22;71994;52.410;-1.966;2024-01-11T17:47:58;19.20;44.00
61591;DHT22;71994;52.410;-1.966;2024-01-11T17:51:21;19.20;44.10
61591;DHT22;71994;52.410;-1.966;2024-01-11T17:54:43;19.20;43.80
61591;DHT22;71994;52.410;-1.966;2024-01-11T17:58:09;19.30;44.10
61591;DHT22;71994;52.410;-1.966;2024-01-11T18:05:44;19.30;43.70
61591;DHT22;71994;52.410;-1.966;2024-01-11T18:09:07;19.20;43.80
61591;DHT22;71994;52.410;-1.966;2024-01-11T18:12:29;19.10;43.90
61591;DHT22;71994;52.410;-1.966;2024-01-11T18:15:52;19.00;44.00
61591;DHT22;71994;52.410;-1.966;2024-01-11T18:19:17;18.90;44.00
61591;DHT22;71994;52.410;-1.966;2024-01-11T18:22:45;18.80;44.20
61591;DHT22;71994;52.410;-1.966;2024-01-11T18:26:08;18.60;44.30
61591;DHT22;71994;52.410;-1.966;2024-01-11T18:29:31;18.60;44.40
61591;DHT22;71994;52.410;-1.966;2024-01-11T18:32:53;18.50;44.40
61591;DHT22;71994;52.410;-1.966;2024-01-11T18:36:16;18.40;44.40
61591;DHT22;71994;52.410;-1.966;2024-01-11T18:39:43;18.20;44.70
61591;DHT22;71994;52.410;-1.966;2024-01-11T18:43:06;18.20;44.60
61591;DHT22;71994;52.410;-1.966;2024-01-11T18:46:28;18.10;45.20
61591;DHT22;71994;52.410;-1.966;2024-01-11T18:49:54;18.10;45.10
61591;DHT22;71994;52.410;-1.966;2024-01-11T18:53:16;18.10;44.80
61591;DHT22;71994;52.410;-1.966;2024-01-11T18:56:43;18.00;45.10
61591;DHT22;71994;52.410;-1.966;2024-01-11T19:00:07;17.90;45.00
61591;DHT22;71994;52.410;-1.966;2024-01-11T19:03:30;17.80;45.10
61591;DHT22;71994;52.410;-1.966;2024-01-11T19:06:52;17.80;45.40
61591;DHT22;71994;52.410;-1.966;2024-01-11T19:10:17;17.80;45.20
61591;DHT22;71994;52.410;-1.966;2024-01-11T19:13:42;17.80;45.30
61591;DHT22;71994;52.410;-1.966;2024-01-11T19:17:07;17.90;45.20
61591;DHT22;71994;52.410;-1.966;2024-01-11T19:20:29;18.10;45.10
61591;DHT22;71994;52.410;-1.966;2024-01-11T19:23:52;18.30;45.00
61591;DHT22;71994;52.410;-1.966;2024-01-11T19:27:15;18.50;44.70
61591;DHT22;71994;52.410;-1.966;2024-01-11T19:30:40;18.70;44.40
61591;DHT22;71994;52.410;-1.966;2024-01-11T19:34:04;18.80;44.10
61591;DHT22;71994;52.410;-1.966;2024-01-11T19:37:26;19.00;43.80
61591;DHT22;71994;52.410;-1.966;2024-01-11T19:40:49;19.10;43.70
61591;DHT22;71994;52.410;-1.966;2024-01-11T19:44:11;19.10;43.50
61591;DHT22;71994;52.410;-1.966;2024-01-11T19:47:37;19.20;43.40
61591;DHT22;71994;52.410;-1.966;2024-01-11T19:51:00;19.10;43.30
61591;DHT22;71994;52.410;-1.966;2024-01-11T19:54:23;19.10;43.40
61591;DHT22;71994;52.410;-1.966;2024-01-11T19:57:45;19.10;43.20
61591;DHT22;71994;52.410;-1.966;2024-01-11T20:01:14;19.00;43.30
61591;DHT22;71994;52.410;-1.966;2024-01-11T20:04:40;18.90;43.40
61591;DHT22;71994;52.410;-1.966;2024-01-11T20:08:03;18.80;43.30
61591;DHT22;71994;52.410;-1.966;2024-01-11T20:11:26;18.80;43.40
61591;DHT22;71994;52.410;-1.966;2024-01-11T20:14:52;18.70;43.50
61591;DHT22;71994;52.410;-1.966;2024-01-11T20:18:14;18.60;43.60
61591;DHT22;71994;52.410;-1.966;2024-01-11T20:21:40;18.50;43.60
61591;DHT22;71994;52.410;-1.966;2024-01-11T20:25:03;18.40;43.80
61591;DHT22;71994;52.410;-1.966;2024-01-11T20:28:29;18.30;44.40
61591;DHT22;71994;52.410;-1.966;2024-01-11T20:31:52;18.30;44.80
61591;DHT22;71994;52.410;-1.966;2024-01-11T20:35:14;18.20;44.80
61591;DHT22;71994;52.410;-1.966;2024-01-11T20:38:40;18.10;45.00
61591;DHT22;71994;52.410;-1.966;2024-01-11T20:42:03;18.10;45.00
61591;DHT22;71994;52.410;-1.966;2024-01-11T20:45:26;18.00;45.30
61591;DHT22;71994;52.410;-1.966;2024-01-11T20:48:49;17.90;45.40
61591;DHT22;71994;52.410;-1.966;2024-01-11T20:52:12;17.90;45.40
61591;DHT22;71994;52.410;-1.966;2024-01-11T20:55:37;17.80;45.50
61591;DHT22;71994;52.410;-1.966;2024-01-11T20:59:03;17.80;45.70
61591;DHT22;71994;52.410;-1.966;2024-01-11T21:02:25;17.80;45.60
61591;DHT22;71994;52.410;-1.966;2024-01-11T21:05:48;18.00;45.90
61591;DHT22;71994;52.410;-1.966;2024-01-11T21:09:13;18.10;46.10
61591;DHT22;71994;52.410;-1.966;2024-01-11T21:12:38;18.20;45.70
61591;DHT22;71994;52.410;-1.966;2024-01-11T21:16:01;18.30;45.40
61591;DHT22;71994;52.410;-1.966;2024-01-11T21:19:24;18.30;45.30